Main page
METAR-TAF:

METAR-TAF

Airports :

Chișinău International Airport

Chisinau, Moldova

latitude: 46-55-40N, longitude: 028-55-51E, elevation: 122 m

Current weather observation

The report was made 12 minutes ago, at 03:30 UTC
Wind 8 kt from the South/Southwest
Temperature 5°C
Humidity 75%
Pressure 1002 hPa
Visibility 10 km or more
no clouds below 1500 m and no cumulonimbus

METAR: LUKK 030330Z 20008KT CAVOK 05/01 Q1002 NOSIG

Time: 05:42 (03:42 UTC)

Forecast

The report was made 4 hours and 22 minutes ago, at 23:20 UTC
Forecast valid from 03 at 00 UTC to 03 at 24 UTC
Wind 9 kt from the South
Visibility 10 km or more
no clouds below 1500 m and no cumulonimbus
Becoming
from 03 at 06 UTC to 03 at 08 UTC
Wind 12 kt from the West/Southwest
Becoming
from 03 at 13 UTC to 03 at 15 UTC
Wind 12 kt from the North/Northwest
Temporary
from 03 at 15 UTC to 03 at 21 UTC
Broken clouds at a height of 1500 ft

TAF: LUKK 022320Z 0300/0324 18009KT CAVOK BECMG 0306/0308 24012KT BECMG 0313/0315 33012KT TEMPO 0315/0321 BKN015

Weather observations and forecasts of more than 4000 airports (METAR and TAF reports).

The available stations are represented by yellow and red dots on the map.

Hover mouse over dot to see the name of the station.

Then click to see weather observations and forecasts.

To change the map : click on the green buttons with a black cross to zoom in, on the green button with a dash to zoom out, or on the green arrows for adjacent maps.


METAR-TAF: